メインページ
METAR-TAF:

METAR-TAF

空港 :

マレ, Hulhule Island, モルディブ

イブラヒム・ナシル国際空港

緯度: 04-12N, 経度: 073-32E, 海抜: 2m

現時点の気象観測

当レポートは1時間4分前の12:00(UTC)に作成
の風 4kt
気温 28°C
湿度 79%
気圧 1009 hPa
視程: 8000m
高度1600ftの雲はほとんどない, 塔状積雲.
高度9000ftの曇り

METAR: VRMM 241200Z 09004KT 8000 FEW016TCU OVC090 28/24 Q1009 TEMPO 4000 -RA

時間: 18:04 (13:04 UTC)

予報

当レポートは2時間4分前の11:00(UTC)に作成
予報は24日の 12時(UTC)から 25日の 18時(UTC)まで有効
北東の風 5kt
視程: 8000m
高度1700ftの雲はほとんどない, 塔状積雲.
小雨
24日の 12時(UTC)から 24日の 18時(UTC)まで一時的に
視程: 4000m
高度1500ftの雲は散在している
高度1600ftの雲はほとんどない, 積乱雲.
高度10000ftの千切れ雲あり
激しい雷雨, 小雨

TAF: VRMM 241100Z 2412/2518 05005KT 8000 -RA FEW017TCU TEMPO 2412/2418 4000 -TSRA SCT015 FEW016CB BKN100

4,000以上の空港の気象観測と天気予報(METAR報とTAF報)

利用可能な観測所は地図上に黄色い丸と赤い丸で示す。

丸の上にカーソルを重ねると観測所名を参照できる。

次にクリックすると気象観測と天気予報を参照できる。

マップの切り替え:黒色「×」印の緑ボタンをクリックして拡大、「-」印の緑ボタンをクリックして縮小、緑色の三角印をクリックして隣りの地図に切り替え


METAR-TAF: